Time;durP1;ratioP1;P1;durP2;ratioP2;P2;SDS_P1;SDS_P2;PMS_P1;PMS_P2;Temp;Humidity;BMP_temperature;BMP_pressure;BME280_temperature;BME280_humidity;BME280_pressure;Samples;Min_cycle;Max_cycle;Signal;HPM_P1;HPM_P2
2021/12/12 00:05:18;;;;;;;10.68;3.92;;;;;;;10.54;100.00;95622.31;4987790;28;20064;-61
2021/12/12 00:07:45;;;;;;;12.50;3.90;;;;;;;10.82;100.00;95655.38;4814899;28;5000728;-61
2021/12/12 00:10:18;;;;;;;19.77;4.45;;;;;;;10.57;100.00;95622.28;4985821;28;20418;-61
2021/12/12 00:12:49;;;;;;;18.08;4.22;;;;;;;10.82;100.00;95649.03;4986849;28;20050;-62
2021/12/12 00:15:17;;;;;;;17.17;4.43;;;;;;;10.73;100.00;95636.44;4987256;28;20464;-61
2021/12/12 00:17:44;;;;;;;12.60;5.55;;;;;;;10.39;100.00;95605.00;4813278;28;5000709;-61
2021/12/12 00:20:14;;;;;;;11.00;2.85;;;;;;;10.82;100.00;95638.75;4987189;28;20054;-61
2021/12/12 00:22:41;;;;;;;16.40;5.40;;;;;;;10.41;100.00;95586.03;4987047;28;20058;-61
2021/12/12 00:25:09;;;;;;;16.42;4.10;;;;;;;10.75;100.00;95638.03;4987176;28;20046;-61
2021/12/12 00:27:37;;;;;;;9.20;3.40;;;;;;;10.79;100.00;95627.69;4814501;28;5000842;-62
2021/12/12 00:30:07;;;;;;;9.80;4.30;;;;;;;10.80;100.00;95634.78;4985492;28;20536;-62
2021/12/12 00:32:37;;;;;;;11.52;3.67;;;;;;;10.80;100.00;95634.78;4985440;28;20058;-61
2021/12/12 00:35:08;;;;;;;20.50;3.65;;;;;;;10.77;100.00;95630.06;4985554;28;20050;-61
2021/12/12 00:37:36;;;;;;;19.58;7.85;;;;;;;10.65;100.00;95637.66;4986336;28;20058;-62
2021/12/12 00:40:11;;;;;;;11.60;2.95;;;;;;;10.01;100.00;95564.47;4815039;28;5000014;-61
2021/12/12 00:42:39;;;;;;;21.15;9.80;;;;;;;10.63;100.00;95656.69;4986306;28;20062;-62
2021/12/12 00:45:12;;;;;;;5.50;3.17;;;;;;;10.61;100.00;95656.28;4985152;28;20541;-61
2021/12/12 00:47:41;;;;;;;8.38;3.95;;;;;;;10.51;100.00;95665.44;4986342;28;20509;-61
2021/12/12 00:50:18;;;;;;;9.75;2.65;;;;;;;10.66;100.00;95691.06;4814358;28;5000313;-61
2021/12/12 00:52:48;;;;;;;9.95;1.77;;;;;;;10.27;100.00;95677.44;4986561;28;20058;-60
2021/12/12 00:55:15;;;;;;;3.58;1.23;;;;;;;10.08;100.00;95632.81;4986290;28;20070;-60
2021/12/12 00:57:42;;;;;;;1.70;0.98;;;;;;;10.62;100.00;95745.69;4984512;28;20145;-61
2021/12/12 02:35:25;;;;;;;5.70;2.40;;;;;;;10.73;100.00;95812.91;5141577;27;20054;-69
2021/12/12 02:37:56;;;;;;;5.25;1.20;;;;;;;10.18;100.00;95731.63;4964082;27;5000194;-62
2021/12/12 02:40:26;;;;;;;8.05;1.85;;;;;;;10.52;100.00;95824.84;5141760;27;20055;-68
2021/12/12 02:42:54;;;;;;;6.60;1.50;;;;;;;10.60;100.00;95798.69;5141664;27;20054;-60
2021/12/12 02:45:23;;;;;;;4.75;1.48;;;;;;;10.47;100.00;95800.31;5141457;27;20493;-67
2021/12/12 02:47:57;;;;;;;3.22;0.80;;;;;;;10.40;100.00;95805.09;5140239;27;20047;-67
2021/12/12 02:50:28;;;;;;;3.38;1.08;;;;;;;10.41;100.00;95824.06;5140479;27;20047;-60
2021/12/12 02:53:00;;;;;;;2.20;1.08;;;;;;;10.27;100.00;95799.19;5141421;27;20050;-67
2021/12/12 02:55:33;;;;;;;4.22;1.23;;;;;;;10.37;100.00;95817.72;5122490;27;20072;-64
2021/12/12 02:58:03;;;;;;;2.47;1.30;;;;;;;10.39;100.00;95826.44;5122418;27;20066;-70
2021/12/12 03:00:34;;;;;;;6.05;2.42;;;;;;;10.39;100.00;95826.44;4963604;27;5000188;-69
2021/12/12 03:03:03;;;;;;;29.92;7.10;;;;;;;10.27;100.00;95829.63;5122298;27;20047;-68
2021/12/12 03:05:34;;;;;;;21.90;7.38;;;;;;;10.10;100.00;95813.81;5122441;27;20130;-62
2021/12/12 03:08:01;;;;;;;11.45;4.35;;;;;;;10.16;100.00;95834.34;5122539;27;20413;-69
2021/12/12 03:10:34;;;;;;;31.02;8.75;;;;;;;10.12;100.00;95841.88;5121674;27;20050;-61
2021/12/12 03:13:03;;;;;;;12.07;4.45;;;;;;;9.80;100.00;95804.34;5140856;27;20513;-68
2021/12/12 03:15:34;;;;;;;13.35;3.42;;;;;;;9.79;100.00;95808.28;5140897;27;20047;-68
2021/12/12 03:18:03;;;;;;;3.47;1.65;;;;;;;10.12;100.00;95850.19;5120287;28;20066;-61
2021/12/12 03:20:35;;;;;;;10.45;3.55;;;;;;;9.76;100.00;95807.09;4943585;28;5000576;-61
2021/12/12 03:23:23;;;;;;;8.60;2.78;;;;;;;10.09;100.00;95859.28;5120111;28;20043;-61
2021/12/12 03:25:59;;;;;;;9.95;2.80;;;;;;;10.01;100.00;95860.44;5120119;28;20056;-61
2021/12/12 03:28:29;;;;;;;4.55;1.42;;;;;;;9.95;100.00;95867.56;5101633;28;20538;-60
2021/12/12 03:31:00;;;;;;;6.28;2.25;;;;;;;9.53;100.00;95812.22;5105820;28;20055;-61
2021/12/12 03:33:30;;;;;;;8.55;4.97;;;;;;;9.85;100.00;95879.38;4929969;28;5000365;-62
2021/12/12 03:35:59;;;;;;;7.85;3.13;;;;;;;9.58;100.00;95855.28;5105906;28;20055;-62
2021/12/12 03:38:30;;;;;;;5.68;3.88;;;;;;;9.80;100.00;95899.13;5105786;28;20163;-69
2021/12/12 03:41:00;;;;;;;6.53;3.10;;;;;;;9.57;100.00;95895.94;5107678;28;20047;-62
2021/12/12 03:43:27;;;;;;;10.90;5.30;;;;;;;9.28;100.00;95827.19;4931151;28;5000656;-67
2021/12/12 03:45:54;;;;;;;6.18;3.75;;;;;;;9.26;100.00;95846.13;5089316;28;20051;-62
2021/12/12 03:48:26;;;;;;;8.50;3.10;;;;;;;9.43;100.00;95890.38;5107836;28;20044;-69
2021/12/12 03:50:57;;;;;;;4.93;1.85;;;;;;;9.35;100.00;95897.06;5107543;28;20051;-69
2021/12/12 03:53:26;;;;;;;6.38;2.22;;;;;;;9.08;100.00;95862.63;5107609;28;20048;-68
2021/12/12 03:55:53;;;;;;;6.40;3.05;;;;;;;9.29;100.00;95906.94;4931099;28;5000361;-61
2021/12/12 03:58:20;;;;;;;41.10;17.42;;;;;;;9.35;100.00;95930.22;5107788;28;20067;-63
2021/12/12 04:01:00;;;;;;;16.50;6.38;;;;;;;7.31;100.00;95603.69;5107378;28;20047;-68
2021/12/12 04:03:27;;;;;;;9.05;4.05;;;;;;;9.29;100.00;95929.03;5107481;28;20127;-68
2021/12/12 04:05:58;;;;;;;6.15;2.70;;;;;;;9.01;100.00;95915.88;4931143;28;5000708;-68
2021/12/12 04:08:31;;;;;;;6.95;2.53;;;;;;;9.09;100.00;95938.78;5107615;28;20062;-61
2021/12/12 04:10:59;;;;;;;8.77;2.53;;;;;;;8.48;100.00;95867.88;5107220;28;20048;-62
2021/12/12 04:13:26;;;;;;;4.38;2.13;;;;;;;8.49;100.00;95902.56;5107413;28;20058;-62
2021/12/12 04:15:55;;;;;;;11.23;4.60;;;;;;;8.79;100.00;95939.03;4932650;27;5000681;-68
2021/12/12 04:18:27;;;;;;;29.67;10.73;;;;;;;8.48;100.00;95897.44;5127823;27;20051;-66
2021/12/12 04:20:55;;;;;;;59.08;19.73;;;;;;;8.66;100.00;95929.47;5127614;27;20057;-62
2021/12/12 04:23:26;;;;;;;54.58;18.60;;;;;;;8.64;100.00;95947.63;5127645;27;20067;-68
2021/12/12 04:26:06;;;;;;;40.15;14.95;;;;;;;8.14;100.00;95884.97;5127561;27;20059;-61
2021/12/12 04:28:33;;;;;;;32.60;14.40;;;;;;;8.59;100.00;95951.53;4950471;27;5000729;-68
2021/12/12 04:31:00;;;;;;;38.25;14.95;;;;;;;8.56;100.00;95948.75;5126966;27;20072;-69
2021/12/12 04:33:27;;;;;;;43.15;16.55;;;;;;;8.57;100.00;95958.59;5127912;27;20143;-69
2021/12/12 04:35:53;;;;;;;33.85;15.25;;;;;;;6.20;100.00;95596.06;5127425;27;20050;-62
2021/12/12 04:38:20;;;;;;;36.28;15.48;;;;;;;8.36;100.00;95952.94;4950118;27;5000055;-62
2021/12/12 04:40:47;;;;;;;42.00;18.00;;;;;;;8.41;100.00;95961.63;5126339;27;20437;-68
2021/12/12 04:43:14;;;;;;;39.78;16.98;;;;;;;8.10;100.00;95914.47;5127127;27;20053;-62
2021/12/12 04:45:51;;;;;;;48.75;19.63;;;;;;;8.29;100.00;95974.94;5126981;27;20061;-68
2021/12/12 04:51:45;;;;;;;71.63;29.52;;;;;;;8.21;100.00;95995.31;4950127;27;5000301;-63
2021/12/12 04:54:43;;;;;;;46.20;19.17;;;;;;;8.24;100.00;95994.59;5108725;27;20050;-62
2021/12/12 04:57:21;;;;;;;45.15;19.25;;;;;;;8.12;100.00;95994.84;5126724;27;20057;-69
2021/12/12 05:00:10;;;;;;;54.28;24.05;;;;;;;7.89;100.00;95985.97;4931453;27;5001024;-62
2021/12/12 05:02:48;;;;;;;42.22;21.88;;;;;;;7.98;100.00;95997.47;5108035;27;20047;-61
2021/12/12 05:05:22;;;;;;;43.83;20.73;;;;;;;8.07;100.00;96017.25;5126804;27;20071;-68
2021/12/12 05:08:21;;;;;;;39.95;17.33;;;;;;;8.10;100.00;96027.53;5126651;27;20517;-67
2021/12/12 05:10:55;;;;;;;37.28;15.23;;;;;;;8.04;100.00;96046.41;5118964;27;20054;-67
2021/12/12 05:13:27;;;;;;;51.85;24.20;;;;;;;7.99;100.00;96056.97;5125829;27;20051;-61
2021/12/12 05:16:01;;;;;;;45.63;23.45;;;;;;;8.01;100.00;96049.09;5126588;27;20100;-61
2021/12/12 05:18:33;;;;;;;61.92;29.67;;;;;;;8.00;100.00;96066.84;5107901;27;20081;-62
2021/12/12 05:21:06;;;;;;;54.46;24.24;;;;;;;7.86;100.00;96039.09;4970925;27;5001037;-68
2021/12/12 05:23:34;;;;;;;233.25;82.57;;;;;;;7.90;100.00;96067.50;5126532;27;20070;-69
2021/12/12 05:26:12;;;;;;;143.02;59.83;;;;;;;7.76;100.00;96078.38;5108064;27;20437;-65
2021/12/12 05:28:49;;;;;;;96.75;48.65;;;;;;;7.78;100.00;96067.75;5126042;27;20054;-69
2021/12/12 05:31:20;;;;;;;69.38;30.35;;;;;;;7.90;100.00;96064.75;5125889;27;20451;-68
2021/12/12 05:33:51;;;;;;;56.77;25.93;;;;;;;7.74;100.00;96059.44;4949120;27;5001007;-62
2021/12/12 05:36:19;;;;;;;60.25;28.55;;;;;;;7.69;100.00;96068.03;5107832;27;20055;-68
2021/12/12 05:38:46;;;;;;;57.78;26.70;;;;;;;7.66;100.00;96069.59;5126014;27;20059;-68
2021/12/12 05:41:19;;;;;;;52.78;23.67;;;;;;;7.40;100.00;96055.88;5125793;27;20051;-70
2021/12/12 05:43:48;;;;;;;47.97;22.70;;;;;;;7.58;100.00;96078.94;5124542;27;20047;-68
2021/12/12 05:46:18;;;;;;;41.72;20.80;;;;;;;7.55;100.00;96079.69;5124949;27;20054;-70
2021/12/12 05:48:46;;;;;;;48.97;23.08;;;;;;;7.63;100.00;96086.84;5126230;27;20509;-62
2021/12/12 05:51:14;;;;;;;42.13;20.58;;;;;;;7.57;100.00;96093.88;5125891;27;20086;-63
2021/12/12 05:53:41;;;;;;;54.56;26.70;;;;;;;7.50;100.00;96081.97;4948788;27;5000770;-68
2021/12/12 05:56:09;;;;;;;63.80;29.40;;;;;;;7.63;100.00;96103.38;5126475;27;20073;-62
2021/12/12 05:58:37;;;;;;;65.75;33.92;;;;;;;7.30;100.00;96078.53;5126046;27;20059;-63
2021/12/12 06:01:07;;;;;;;70.70;35.60;;;;;;;7.36;100.00;96071.56;5107580;27;20457;-69
2021/12/12 06:03:39;;;;;;;64.40;31.60;;;;;;;6.95;100.00;96031.25;5125921;27;20066;-69
2021/12/12 06:06:09;;;;;;;75.93;33.63;;;;;;;7.66;100.00;96118.41;5123883;27;20065;-63
2021/12/12 06:08:38;;;;;;;96.18;44.33;;;;;;;7.64;100.00;96113.25;5107273;28;20050;-62
2021/12/12 06:11:06;;;;;;;118.95;53.38;;;;;;;7.65;100.00;96116.78;5107095;28;20047;-69
2021/12/12 06:13:37;;;;;;;111.20;48.03;;;;;;;7.68;100.00;96119.59;5106907;27;20051;-69
2021/12/12 06:16:06;;;;;;;139.45;64.25;;;;;;;7.51;100.00;96117.41;5121356;27;20142;-62
2021/12/12 06:18:36;;;;;;;153.55;68.70;;;;;;;7.26;100.00;96105.25;5122943;28;20047;-62
2021/12/12 06:21:04;;;;;;;142.73;65.70;;;;;;;7.69;100.00;96148.78;5125053;28;20062;-69
2021/12/12 06:23:31;;;;;;;153.60;66.03;;;;;;;7.44;100.00;96117.34;5125550;28;20043;-63
2021/12/12 06:25:58;;;;;;;137.43;60.78;;;;;;;7.64;100.00;96159.31;4931115;28;5000228;-63
2021/12/12 06:28:31;;;;;;;117.13;51.15;;;;;;;7.63;100.00;96158.50;5125230;28;20066;-69
2021/12/12 06:30:59;;;;;;;81.57;43.00;;;;;;;7.45;100.00;96140.16;5125237;28;20051;-70
2021/12/12 06:33:27;;;;;;;72.32;38.25;;;;;;;7.45;100.00;96140.94;5125154;28;20088;-63
2021/12/12 06:35:55;;;;;;;63.70;29.90;;;;;;;7.58;100.00;96180.91;5125084;28;20461;-69
2021/12/12 06:38:22;;;;;;;61.85;29.52;;;;;;;7.62;100.00;96201.03;4948213;28;5000037;-62
2021/12/12 06:40:49;;;;;;;56.15;27.23;;;;;;;7.67;100.00;96205.41;5106583;28;20055;-63
2021/12/12 06:43:18;;;;;;;47.70;25.10;;;;;;;7.65;100.00;96205.78;5124993;28;20150;-69
2021/12/12 06:45:47;;;;;;;52.17;25.40;;;;;;;7.56;100.00;96174.97;5125140;28;20414;-69
2021/12/12 06:48:15;;;;;;;42.08;20.55;;;;;;;7.73;100.00;96201.97;4948183;28;5000149;-70
2021/12/12 06:50:44;;;;;;;35.17;19.17;;;;;;;7.26;100.00;96143.00;5125187;28;20047;-68
2021/12/12 06:53:15;;;;;;;44.25;23.98;;;;;;;7.66;100.00;96212.91;5125057;28;20528;-62
2021/12/12 06:55:44;;;;;;;36.65;20.85;;;;;;;7.69;100.00;96223.19;5125246;28;20061;-64
2021/12/12 06:58:13;;;;;;;49.72;24.55;;;;;;;7.71;100.00;96215.31;5106782;28;20047;-63
2021/12/12 07:00:42;;;;;;;40.50;21.75;;;;;;;7.81;100.00;96213.13;4948077;28;5000173;-63
2021/12/12 07:03:12;;;;;;;53.95;26.52;;;;;;;7.22;100.00;96145.72;5125016;28;20643;-61
2021/12/12 07:05:39;;;;;;;87.20;41.80;;;;;;;7.91;100.00;96223.47;5128268;27;20057;-62
2021/12/12 07:08:06;;;;;;;88.57;42.47;;;;;;;7.54;100.00;96166.25;5128989;27;20053;-64
2021/12/12 07:10:34;;;;;;;92.28;45.22;;;;;;;7.98;100.00;96218.06;4951791;27;5000623;-62
2021/12/12 07:13:02;;;;;;;94.95;46.63;;;;;;;7.89;100.00;96209.28;5128692;27;20057;-66
2021/12/12 07:15:43;;;;;;;86.43;45.58;;;;;;;8.05;100.00;96234.69;5128983;27;20043;-63
2021/12/12 07:18:13;;;;;;;113.78;52.67;;;;;;;8.04;100.00;96238.63;5110499;27;20054;-62
2021/12/12 07:20:41;;;;;;;114.93;54.33;;;;;;;7.97;100.00;96233.00;5128501;27;20049;-62
2021/12/12 07:23:10;;;;;;;125.32;60.13;;;;;;;7.94;100.00;96234.56;4934078;27;5000664;-67
2021/12/12 07:25:39;;;;;;;135.00;65.05;;;;;;;7.98;100.00;96235.41;5128528;27;20051;-68
2021/12/12 07:28:07;;;;;;;143.02;63.13;;;;;;;7.86;100.00;96221.84;5128850;27;20097;-61
2021/12/12 07:30:36;;;;;;;128.23;59.20;;;;;;;8.05;100.00;96245.72;5128410;27;20141;-67
2021/12/12 07:33:04;;;;;;;86.53;38.37;;;;;;;8.11;100.00;96241.50;4934127;27;5000751;-68
2021/12/12 07:35:34;;;;;;;62.30;32.78;;;;;;;8.15;100.00;96245.88;5109800;27;20691;-61
2021/12/12 07:38:01;;;;;;;72.00;38.05;;;;;;;7.94;100.00;96206.19;5110148;27;20077;-62
2021/12/12 07:40:28;;;;;;;109.50;52.10;;;;;;;8.18;100.00;96260.88;5110070;27;20051;-66
2021/12/12 07:42:57;;;;;;;119.04;58.03;;;;;;;7.92;100.00;96236.09;5032236;27;5001216;-63
2021/12/12 07:45:25;;;;;;;95.63;45.95;;;;;;;8.09;100.00;96246.59;5128636;27;20065;-69
2021/12/12 07:47:53;;;;;;;75.63;36.42;;;;;;;8.25;100.00;96267.31;5128584;27;20047;-62
2021/12/12 07:50:23;;;;;;;50.00;22.50;;;;;;;7.33;100.00;96182.47;5110084;27;20051;-62
2021/12/12 07:52:50;;;;;;;42.42;21.67;;;;;;;8.19;100.00;96292.84;5128536;27;20051;-68
2021/12/12 07:55:17;;;;;;;60.45;31.40;;;;;;;8.31;100.00;96292.63;4951200;27;5000178;-68
2021/12/12 07:57:44;;;;;;;51.80;27.45;;;;;;;8.27;100.00;96275.22;5128479;27;20047;-68
2021/12/12 08:00:19;;;;;;;82.35;38.08;;;;;;;8.30;100.00;96296.56;5128078;27;20059;-66
2021/12/12 08:02:48;;;;;;;74.15;30.42;;;;;;;8.15;100.00;96267.16;5127808;27;20066;-62
2021/12/12 08:05:19;;;;;;;67.36;30.54;;;;;;;8.30;100.00;96302.06;5062403;27;5001138;-67
2021/12/12 08:07:46;;;;;;;67.25;34.28;;;;;;;8.44;100.00;96307.78;5109416;27;20056;-62
2021/12/12 08:10:16;;;;;;;70.95;33.42;;;;;;;8.55;100.00;96308.72;5108985;27;20516;-67
2021/12/12 08:12:44;;;;;;;75.43;36.13;;;;;;;8.47;100.00;96301.50;5128000;27;20421;-67
2021/12/12 08:15:15;;;;;;;88.43;41.80;;;;;;;8.48;100.00;96289.28;5127855;27;20051;-61
2021/12/12 08:17:42;;;;;;;74.03;40.67;;;;;;;8.71;100.00;96301.03;4950642;27;5000406;-62
2021/12/12 08:20:13;;;;;;;77.15;38.97;;;;;;;8.68;100.00;96285.19;5127375;27;20051;-69
2021/12/12 08:22:41;;;;;;;88.88;41.17;;;;;;;8.98;100.00;96322.66;5127640;27;20065;-68
2021/12/12 08:25:11;;;;;;;83.22;44.97;;;;;;;8.90;100.00;96301.63;5109379;27;20055;-68
2021/12/12 08:27:39;;;;;;;72.80;36.33;;;;;;;8.99;100.00;96340.03;4950656;27;5000685;-61
2021/12/12 08:30:08;;;;;;;69.45;30.80;;;;;;;8.97;100.00;96336.84;5126709;27;20062;-67
2021/12/12 08:32:35;;;;;;;67.70;26.05;;;;;;;9.07;100.00;96336.16;5127109;27;20051;-68
2021/12/12 08:35:11;;;;;;;42.40;21.08;;;;;;;8.87;100.00;96305.16;5127236;27;20520;-67
2021/12/12 08:37:40;;;;;;;48.90;23.48;;;;;;;9.03;100.00;96340.84;5127279;27;20456;-68
2021/12/12 08:40:08;;;;;;;46.03;22.20;;;;;;;8.34;100.00;96234.72;4950003;27;5000170;-62
2021/12/12 08:42:36;;;;;;;31.02;17.85;;;;;;;8.32;100.00;96244.53;5108570;27;20055;-62
2021/12/12 08:45:07;;;;;;;33.65;16.58;;;;;;;8.87;100.00;96337.50;5127348;27;20051;-62
2021/12/12 08:47:35;;;;;;;32.72;17.45;;;;;;;8.65;100.00;96300.56;5108451;27;20066;-67
2021/12/12 08:53:26;;;;;;;36.92;17.70;;;;;;;8.98;100.00;96321.84;5122878;27;20065;-66
2021/12/12 08:55:55;;;;;;;37.53;17.88;;;;;;;9.04;100.00;96314.81;5125711;27;20050;-63
2021/12/12 08:58:26;;;;;;;40.85;20.10;;;;;;;9.05;100.00;96327.47;5106627;27;20051;-63
2021/12/12 09:01:07;;;;;;;59.90;30.83;;;;;;;9.24;100.00;96330.03;4947569;27;5000457;-62
2021/12/12 09:03:51;;;;;;;64.93;31.48;;;;;;;9.34;100.00;96334.09;5124722;27;20432;-65
2021/12/12 09:06:22;;;;;;;43.45;25.02;;;;;;;9.42;100.00;96336.53;5124914;27;20086;-65
2021/12/12 09:09:04;;;;;;;84.18;43.08;;;;;;;9.47;100.00;96338.94;5125072;27;20055;-68
2021/12/12 09:11:37;;;;;;;98.45;47.63;;;;;;;9.61;100.00;96328.00;4948035;27;5000607;-64
2021/12/12 09:14:16;;;;;;;103.22;49.42;;;;;;;9.81;100.00;96323.88;5106014;27;20553;-64
2021/12/12 09:16:49;;;;;;;73.72;36.92;;;;;;;10.02;100.00;96314.94;5106109;27;20166;-63
2021/12/12 09:19:25;;;;;;;77.18;41.40;;;;;;;10.16;100.00;96320.59;5105905;27;20093;-62
2021/12/12 09:22:01;;;;;;;59.67;30.57;;;;;;;9.82;100.00;96245.22;4929752;27;5000511;-62
2021/12/12 09:24:51;;;;;;;40.70;21.70;;;;;;;10.41;100.00;96322.34;5105990;27;20046;-62
2021/12/12 09:27:26;;;;;;;36.85;20.80;;;;;;;10.33;100.00;96287.50;5124502;27;20130;-67
2021/12/12 09:30:26;;;;;;;28.58;15.43;;;;;;;11.17;100.00;96331.41;5125861;27;20104;-66
2021/12/12 09:33:21;;;;;;;14.77;7.10;;;;;;;11.68;100.00;96333.91;4893309;27;5000750;-67
2021/12/12 09:35:59;;;;;;;7.50;4.05;;;;;;;11.15;96.57;96238.72;5115817;27;20134;-65
2021/12/12 09:38:38;;;;;;;8.77;2.72;;;;;;;11.75;96.13;96339.44;5107789;27;20055;-65
2021/12/12 09:41:45;;;;;;;6.78;3.35;;;;;;;11.96;95.70;96328.38;5125770;27;20494;-66
2021/12/12 09:44:29;;;;;;;8.23;3.83;;;;;;;12.10;92.50;96320.03;4930934;27;5000232;-62
2021/12/12 09:47:32;;;;;;;12.55;4.88;;;;;;;12.40;90.34;96342.63;5125620;27;20760;-67
2021/12/12 09:53:26;;;;;;;11.93;3.97;;;;;;;12.32;88.69;96352.16;5125752;27;20050;-64
2021/12/12 09:56:16;;;;;;;11.55;4.25;;;;;;;12.50;90.60;96347.38;4949078;27;5000152;-65
2021/12/12 09:58:55;;;;;;;17.83;7.65;;;;;;;12.77;88.81;96358.81;5107412;27;20208;-63
2021/12/12 10:01:32;;;;;;;19.60;8.13;;;;;;;12.96;87.90;96356.38;5125605;27;20055;-65
2021/12/12 10:04:04;;;;;;;10.10;4.38;;;;;;;13.08;86.13;96355.16;5125673;27;20401;-63
2021/12/12 10:06:34;;;;;;;36.83;16.23;;;;;;;13.42;82.95;96357.00;4948406;27;5000609;-65
2021/12/12 10:09:16;;;;;;;19.50;7.43;;;;;;;13.51;83.04;96357.34;5107336;27;20485;-68
2021/12/12 10:12:13;;;;;;;10.52;4.03;;;;;;;13.61;82.38;96369.59;5125412;27;20047;-66
2021/12/12 10:14:59;;;;;;;16.98;5.63;;;;;;;13.68;82.25;96366.78;5086738;27;20599;-63
2021/12/12 10:17:38;;;;;;;14.02;5.63;;;;;;;13.64;83.01;96363.25;4948192;27;5000303;-63
2021/12/12 10:20:22;;;;;;;12.63;4.75;;;;;;;13.54;82.91;96367.69;5125157;28;20146;-63
2021/12/12 10:23:27;;;;;;;11.13;4.43;;;;;;;13.38;82.02;96361.81;5125586;28;20074;-63
2021/12/12 10:26:31;;;;;;;12.30;5.13;;;;;;;13.38;81.88;96358.22;5125189;28;20055;-63
2021/12/12 10:29:13;;;;;;;29.08;10.93;;;;;;;13.46;80.60;96355.00;4930892;28;5000215;-63
2021/12/12 10:31:46;;;;;;;15.63;5.18;;;;;;;13.40;82.12;96353.81;5106801;28;20084;-63
2021/12/12 10:34:20;;;;;;;11.15;4.47;;;;;;;12.99;81.52;96288.84;5106933;28;20293;-63
2021/12/12 10:37:07;;;;;;;9.45;4.38;;;;;;;12.58;86.07;96339.81;5106835;28;20066;-63
2021/12/12 10:39:39;;;;;;;5.05;2.63;;;;;;;12.00;89.46;96312.50;4949302;27;5000404;-64
2021/12/12 10:42:53;;;;;;;5.63;2.80;;;;;;;12.78;88.60;96336.19;5110829;27;20501;-63
2021/12/12 10:45:37;;;;;;;5.35;2.22;;;;;;;12.73;86.15;96311.59;5102805;27;20142;-63
2021/12/12 10:48:08;;;;;;;4.40;2.20;;;;;;;13.05;85.72;96342.06;5110664;27;20126;-65
2021/12/12 10:51:03;;;;;;;6.88;2.40;;;;;;;13.05;86.67;96340.09;4951823;27;5000163;-63
2021/12/12 10:53:40;;;;;;;10.23;2.17;;;;;;;12.95;86.92;96335.34;5090220;28;20527;-65
2021/12/12 10:56:25;;;;;;;4.13;2.10;;;;;;;12.82;88.38;96331.41;5088326;28;20073;-64
2021/12/12 10:58:59;;;;;;;8.32;1.92;;;;;;;12.70;89.02;96334.63;5108828;28;20079;-63
2021/12/12 11:01:31;;;;;;;3.25;2.40;;;;;;;12.55;90.10;96319.16;4931946;28;5000835;-65
2021/12/12 11:04:04;;;;;;;5.93;2.63;;;;;;;12.65;90.77;96339.78;5106862;28;20059;-64
2021/12/12 11:06:37;;;;;;;11.40;5.15;;;;;;;12.61;91.67;96328.69;5105974;28;20131;-65
2021/12/12 11:09:13;;;;;;;13.20;5.53;;;;;;;12.75;90.44;96337.00;5106552;28;20051;-65
2021/12/12 11:11:45;;;;;;;12.70;5.90;;;;;;;12.78;91.68;96338.16;4930592;28;5000890;-64
2021/12/12 11:14:24;;;;;;;15.88;7.55;;;;;;;12.80;92.60;96341.34;5088097;28;20092;-65
2021/12/12 11:16:54;;;;;;;14.60;7.03;;;;;;;12.85;93.32;96341.72;5088778;27;20493;-63
2021/12/12 11:19:44;;;;;;;15.30;5.53;;;;;;;12.88;92.05;96335.34;5128244;27;20043;-65
2021/12/12 11:22:21;;;;;;;9.38;4.05;;;;;;;12.80;93.58;96344.13;5128556;27;20096;-63
2021/12/12 11:24:57;;;;;;;14.20;4.60;;;;;;;12.76;93.29;96337.78;4951772;27;5000781;-63
2021/12/12 11:27:42;;;;;;;8.18;3.70;;;;;;;12.70;94.22;96340.19;5109967;27;20087;-64
2021/12/12 11:30:33;;;;;;;8.55;2.90;;;;;;;12.87;92.72;96339.31;5109817;27;20123;-64
2021/12/12 11:33:03;;;;;;;4.80;2.65;;;;;;;12.70;91.64;96311.59;5110103;27;20156;-63
2021/12/12 11:35:31;;;;;;;10.27;3.35;;;;;;;12.83;92.60;96341.34;4951271;27;5001305;-63
2021/12/12 11:38:05;;;;;;;9.75;4.22;;;;;;;13.00;92.77;96334.13;5128610;27;20082;-64
2021/12/12 11:40:46;;;;;;;8.75;3.85;;;;;;;13.14;90.35;96332.09;5128064;27;20051;-64
2021/12/12 11:43:40;;;;;;;7.82;3.63;;;;;;;12.82;90.92;96291.72;5128156;27;20078;-64
2021/12/12 11:46:23;;;;;;;5.53;3.25;;;;;;;13.19;90.40;96333.66;4951401;27;5000251;-65
2021/12/12 11:49:11;;;;;;;39.83;21.98;;;;;;;13.30;90.56;96346.34;5128392;27;20051;-63
2021/12/12 11:51:54;;;;;;;12.48;5.72;;;;;;;13.40;90.38;96345.47;5109154;27;20051;-64
2021/12/12 11:54:54;;;;;;;9.18;5.60;;;;;;;13.58;89.78;96346.19;5127814;27;20051;-63
2021/12/12 11:57:28;;;;;;;9.15;4.63;;;;;;;13.66;87.31;96347.72;4951231;27;5000777;-65
2021/12/12 12:00:15;;;;;;;14.32;6.18;;;;;;;13.38;87.78;96291.44;5109823;27;20078;-62
2021/12/12 12:02:54;;;;;;;11.80;5.50;;;;;;;13.78;87.13;96326.19;5127936;27;20059;-64
2021/12/12 12:05:32;;;;;;;10.88;3.97;;;;;;;13.81;87.14;96325.34;5127724;27;20565;-66
2021/12/12 12:07:59;;;;;;;13.50;6.55;;;;;;;13.95;86.89;96326.06;4950659;27;5001008;-65
2021/12/12 12:10:48;;;;;;;19.27;6.40;;;;;;;14.08;86.10;96332.72;5127879;27;20071;-64
2021/12/12 12:13:51;;;;;;;10.02;4.68;;;;;;;13.77;84.76;96285.63;5109457;27;20054;-65
2021/12/12 12:16:52;;;;;;;7.75;3.35;;;;;;;14.07;83.83;96322.00;5127650;27;20047;-66
2021/12/12 12:19:43;;;;;;;6.00;3.13;;;;;;;14.00;84.77;96316.47;4930617;28;5000263;-64
2021/12/12 12:22:30;;;;;;;9.80;4.53;;;;;;;13.96;85.92;96315.72;5106968;28;20055;-65
2021/12/12 12:25:17;;;;;;;6.75;3.55;;;;;;;14.04;86.55;96320.00;5088597;28;20479;-63
2021/12/12 12:27:53;;;;;;;10.35;4.18;;;;;;;14.09;85.94;96308.41;5106440;28;20130;-63
2021/12/12 12:30:29;;;;;;;12.18;5.28;;;;;;;14.12;84.26;96307.59;4930615;28;5000505;-63
2021/12/12 12:33:24;;;;;;;12.23;5.72;;;;;;;14.05;84.81;96302.09;5088850;28;20048;-64
2021/12/12 12:36:13;;;;;;;9.68;4.65;;;;;;;14.05;83.80;96308.47;5107075;28;20483;-64
2021/12/12 12:39:10;;;;;;;13.32;5.32;;;;;;;14.01;84.22;96301.31;5088536;28;20573;-63
2021/12/12 12:42:02;;;;;;;8.40;3.45;;;;;;;13.83;85.63;96303.47;4930501;28;5000288;-62
2021/12/12 12:45:08;;;;;;;9.35;4.72;;;;;;;13.85;85.57;96304.63;5088651;28;20134;-67
2021/12/12 12:47:41;;;;;;;10.95;5.15;;;;;;;13.69;86.86;96310.72;5106510;28;20198;-65
2021/12/12 12:50:38;;;;;;;13.95;5.78;;;;;;;13.65;88.17;96317.53;5106905;28;20558;-66
2021/12/12 12:53:33;;;;;;;30.80;13.85;;;;;;;13.53;89.68;96327.13;4912040;28;5002089;-65
2021/12/12 12:56:42;;;;;;;38.45;14.60;;;;;;;13.35;89.89;96298.63;5106532;28;20575;-63
2021/12/12 12:59:18;;;;;;;30.73;11.88;;;;;;;12.92;90.17;96241.63;5106727;28;20052;-66
2021/12/12 13:02:04;;;;;;;15.60;9.20;;;;;;;13.47;89.19;96317.63;4929310;28;5001014;-63
2021/12/12 13:04:58;;;;;;;21.00;10.13;;;;;;;13.54;89.74;96351.00;5106354;28;20134;-64
2021/12/12 13:07:57;;;;;;;22.30;9.73;;;;;;;13.51;90.28;96340.66;5106223;28;20621;-63
2021/12/12 13:10:28;;;;;;;22.92;10.18;;;;;;;13.05;90.50;96278.94;5106155;28;20537;-65
2021/12/12 13:13:19;;;;;;;24.00;8.23;;;;;;;13.52;90.53;96364.50;4929952;28;5000808;-65
2021/12/12 13:16:00;;;;;;;16.98;6.47;;;;;;;13.54;89.89;96361.31;5106050;28;20116;-65
2021/12/12 13:18:45;;;;;;;13.98;5.30;;;;;;;13.44;90.38;96360.19;5119599;27;20123;-63
2021/12/12 13:21:15;;;;;;;13.18;5.50;;;;;;;13.43;91.49;96366.94;5126517;27;20117;-65
2021/12/12 13:23:54;;;;;;;15.38;7.47;;;;;;;13.34;92.02;96351.88;4949738;27;5000795;-63
2021/12/12 13:26:58;;;;;;;17.83;8.60;;;;;;;13.38;92.07;96359.03;5125853;27;20050;-65
2021/12/12 13:30:06;;;;;;;11.13;4.70;;;;;;;13.39;90.60;96357.81;5126645;27;20155;-63
2021/12/12 13:33:00;;;;;;;12.88;4.72;;;;;;;13.07;90.32;96312.66;5108206;27;20051;-65
2021/12/12 13:35:57;;;;;;;8.65;4.07;;;;;;;13.28;91.26;96359.84;4949192;27;5000266;-64
2021/12/12 13:38:47;;;;;;;7.75;4.00;;;;;;;12.75;92.06;96275.84;5107919;27;20051;-69
2021/12/12 13:42:15;;;;;;;8.55;4.03;;;;;;;13.20;93.17;96351.94;5111568;27;20589;-69
2021/12/12 13:44:45;;;;;;;7.85;3.67;;;;;;;13.08;94.81;96353.19;5025673;28;20080;-61
2021/12/12 13:47:20;;;;;;;5.88;2.97;;;;;;;12.88;97.07;96354.03;4933866;27;5000223;-69